createdAt,value
2018-09-03T00:00:25.847Z,60.64
2018-09-03T00:01:25.839Z,60.64
2018-09-03T00:02:25.843Z,60.64
2018-09-03T00:03:25.814Z,61.04
2018-09-03T00:04:25.802Z,60.61
2018-09-03T00:05:25.799Z,60.71
2018-09-03T00:06:25.778Z,61.21
2018-09-03T00:07:25.789Z,60.84
2018-09-03T00:08:25.757Z,60.71
2018-09-03T00:09:25.761Z,60.64
2018-09-03T00:10:25.732Z,60.84
2018-09-03T00:11:25.731Z,60.74
2018-09-03T00:12:25.729Z,60.81
2018-09-03T00:13:25.725Z,60.81
2018-09-03T00:14:25.689Z,60.64
2018-09-03T00:15:25.682Z,60.74
2018-09-03T00:16:25.668Z,60.64
2018-09-03T00:17:25.671Z,61.24
2018-09-03T00:18:25.655Z,60.61
2018-09-03T00:19:25.633Z,60.74
2018-09-03T00:20:25.620Z,61.14
2018-09-03T00:21:25.612Z,60.64
2018-09-03T00:22:25.618Z,60.64
2018-09-03T00:23:25.591Z,60.64
2018-09-03T00:24:25.599Z,60.74
2018-09-03T00:25:25.566Z,60.71
2018-09-03T00:26:25.555Z,60.64
2018-09-03T00:27:25.578Z,60.61
2018-09-03T00:28:25.532Z,60.71
2018-09-03T00:29:25.547Z,61.11
2018-09-03T00:30:25.513Z,61.24
2018-09-03T00:31:25.499Z,61.21
2018-09-03T00:32:25.509Z,60.51
2018-09-03T00:33:25.485Z,60.71
2018-09-03T00:34:25.482Z,60.74
2018-09-03T00:35:25.456Z,60.64
2018-09-03T00:36:25.448Z,60.74
2018-09-03T00:37:25.453Z,61.14
2018-09-03T00:38:25.422Z,60.84
2018-09-03T00:39:25.409Z,60.74
2018-09-03T00:40:25.406Z,61.14
2018-09-03T00:41:25.387Z,60.64
2018-09-03T00:42:25.380Z,60.81
2018-09-03T00:43:25.380Z,61.34
2018-09-03T00:44:25.365Z,60.74
2018-09-03T00:45:25.344Z,60.64
2018-09-03T00:46:25.331Z,60.51
2018-09-03T00:47:25.318Z,60.94
2018-09-03T00:48:25.335Z,61.21
2018-09-03T00:49:25.298Z,60.53
2018-09-03T00:50:25.288Z,61.04
2018-09-03T00:51:25.287Z,61.24
2018-09-03T00:52:25.265Z,60.81
2018-09-03T00:53:25.269Z,60.71
2018-09-03T00:54:25.243Z,61.21
2018-09-03T00:55:25.246Z,61.31
2018-09-03T00:56:25.219Z,61.54
2018-09-03T00:57:25.207Z,61.54
2018-09-03T00:58:25.215Z,60.74
2018-09-03T00:59:25.188Z,60.74
2018-09-03T01:00:25.182Z,61.24
2018-09-03T01:01:25.165Z,61.04
2018-09-03T01:02:25.163Z,60.74
2018-09-03T01:03:25.168Z,60.94
2018-09-03T01:04:25.130Z,61.24
2018-09-03T01:05:25.117Z,61.14
2018-09-03T01:06:25.114Z,60.74
2018-09-03T01:07:25.107Z,61.34
2018-09-03T01:08:25.108Z,61.24
2018-09-03T01:09:25.075Z,60.74
2018-09-03T01:10:25.063Z,60.64
2018-09-03T01:11:25.050Z,60.64
2018-09-03T01:12:25.041Z,61.01
2018-09-03T01:13:25.051Z,60.84
2018-09-03T01:14:25.018Z,61.51
2018-09-03T01:15:25.024Z,60.71
2018-09-03T01:16:24.996Z,60.71
2018-09-03T01:17:25.006Z,60.74
2018-09-03T01:18:25.005Z,60.91
2018-09-03T01:19:24.962Z,61.34
2018-09-03T01:20:24.952Z,60.64
2018-09-03T01:21:24.943Z,61.24
2018-09-03T01:22:24.930Z,60.53
2018-09-03T01:23:24.932Z,60.94
2018-09-03T01:24:24.908Z,60.64
2018-09-03T01:25:24.895Z,60.74
2018-09-03T01:26:24.886Z,60.81
2018-09-03T01:27:24.873Z,60.74
2018-09-03T01:28:24.898Z,60.64
2018-09-03T01:29:24.899Z,60.94
2018-09-03T01:30:24.860Z,60.53
2018-09-03T01:31:24.827Z,60.81
2018-09-03T01:32:24.823Z,61.11
2018-09-03T01:33:24.826Z,60.53
2018-09-03T01:34:24.799Z,60.84
2018-09-03T01:35:24.796Z,60.84
2018-09-03T01:36:24.775Z,60.61
2018-09-03T01:37:24.760Z,60.84
2018-09-03T01:38:24.766Z,60.51
2018-09-03T01:39:24.741Z,60.41
2018-09-03T01:40:24.729Z,60.81
2018-09-03T01:41:24.727Z,60.81
2018-09-03T01:42:24.705Z,60.64
2018-09-03T01:43:24.709Z,60.64
2018-09-03T01:44:24.683Z,60.74
2018-09-03T01:45:24.676Z,60.74
2018-09-03T01:46:24.672Z,61.04
2018-09-03T01:47:24.650Z,60.71
2018-09-03T01:48:24.654Z,60.71
2018-09-03T01:49:24.630Z,61.11
2018-09-03T01:50:24.620Z,60.64
2018-09-03T01:51:24.615Z,60.74
2018-09-03T01:52:24.594Z,60.64
2018-09-03T01:53:24.597Z,60.64
2018-09-03T01:54:24.571Z,60.61
2018-09-03T01:55:24.560Z,60.61
2018-09-03T01:56:24.547Z,60.81
2018-09-03T01:57:24.538Z,60.64
2018-09-03T01:58:24.526Z,60.64
2018-09-03T01:59:24.531Z,60.74
2018-09-03T02:00:24.507Z,60.51
2018-09-03T02:01:24.502Z,60.61
2018-09-03T02:02:24.486Z,60.71
2018-09-03T02:03:24.470Z,60.84
2018-09-03T02:04:24.473Z,60.31
2018-09-03T02:05:24.451Z,60.64
2018-09-03T02:06:24.436Z,60.84
2018-09-03T02:07:24.430Z,60.74
2018-09-03T02:08:24.425Z,60.74
2018-09-03T02:09:24.436Z,60.64
2018-09-03T02:10:24.397Z,60.81
2018-09-03T02:11:24.381Z,60.71
2018-09-03T02:12:24.374Z,60.94
2018-09-03T02:13:24.380Z,60.71
2018-09-03T02:14:24.384Z,60.91
2018-09-03T02:15:24.336Z,60.91
2018-09-03T02:16:24.323Z,60.41
2018-09-03T02:17:24.312Z,60.64
2018-09-03T02:18:24.303Z,60.74
2018-09-03T02:19:24.304Z,60.81
2018-09-03T02:20:24.280Z,60.61
2018-09-03T02:21:24.284Z,60.53
2018-09-03T02:22:24.258Z,60.64
2018-09-03T02:23:24.251Z,60.64
2018-09-03T02:24:24.259Z,60.61
2018-09-03T02:25:24.222Z,60.64
2018-09-03T02:26:24.210Z,60.84
2018-09-03T02:27:24.200Z,60.61
2018-09-03T02:28:24.189Z,60.84
2018-09-03T02:29:24.199Z,60.64
2018-09-03T02:30:24.179Z,60.64
2018-09-03T02:31:24.160Z,60.84
2018-09-03T02:32:24.143Z,60.74
2018-09-03T02:33:24.133Z,60.51
2018-09-03T02:34:24.138Z,61.11
2018-09-03T02:35:24.112Z,60.84
2018-09-03T02:36:24.099Z,60.74
2018-09-03T02:37:24.102Z,60.74
2018-09-03T02:38:24.076Z,60.74
2018-09-03T02:39:24.085Z,61.11
2018-09-03T02:40:24.057Z,60.64
2018-09-03T02:41:24.053Z,60.84
2018-09-03T02:42:24.032Z,60.74
2018-09-03T02:43:24.022Z,60.64
2018-09-03T02:44:24.031Z,60.64
2018-09-03T02:45:24.004Z,60.84
2018-09-03T02:46:23.992Z,60.84
2018-09-03T02:47:23.986Z,60.91
2018-09-03T02:48:23.964Z,60.61
2018-09-03T02:49:23.972Z,60.61
2018-09-03T02:50:23.943Z,60.51
2018-09-03T02:51:23.932Z,60.81
2018-09-03T02:52:23.925Z,60.71
2018-09-03T02:53:23.908Z,60.41
2018-09-03T02:54:23.914Z,60.84
2018-09-03T02:55:23.887Z,60.74
2018-09-03T02:56:23.878Z,60.31
2018-09-03T02:57:23.868Z,60.81
2018-09-03T02:58:23.853Z,60.81
2018-09-03T02:59:23.861Z,60.64
2018-09-03T03:00:23.830Z,60.64
2018-09-03T03:01:23.818Z,60.74
2018-09-03T03:02:23.808Z,60.64
2018-09-03T03:03:23.800Z,60.41
2018-09-03T03:04:23.807Z,60.81
2018-09-03T03:05:23.785Z,60.61
2018-09-03T03:06:23.763Z,60.51
2018-09-03T03:07:23.753Z,60.74
2018-09-03T03:08:23.746Z,60.81
2018-09-03T03:09:23.750Z,60.91
2018-09-03T03:10:23.719Z,60.64
2018-09-03T03:11:23.709Z,60.71
2018-09-03T03:12:23.697Z,61.11
2018-09-03T03:13:23.701Z,60.64
2018-09-03T03:14:23.688Z,60.61
2018-09-03T03:15:23.662Z,60.41
2018-09-03T03:16:23.651Z,61.14
2018-09-03T03:17:23.639Z,60.51
2018-09-03T03:18:23.629Z,60.64
2018-09-03T03:19:23.640Z,61.11
2018-09-03T03:20:23.623Z,60.84
2018-09-03T03:21:23.595Z,60.41
2018-09-03T03:22:23.588Z,61.14
2018-09-03T03:23:23.571Z,60.81
2018-09-03T03:24:23.593Z,60.61
2018-09-03T03:25:23.564Z,60.71
2018-09-03T03:26:23.543Z,60.94
2018-09-03T03:27:23.527Z,61.14
2018-09-03T03:28:23.520Z,61.11
2018-09-03T03:29:23.514Z,60.61
2018-09-03T03:30:23.520Z,60.71
2018-09-03T03:31:23.483Z,61.14
2018-09-03T03:32:23.472Z,60.61
2018-09-03T03:33:23.465Z,60.61
2018-09-03T03:34:23.451Z,60.64
2018-09-03T03:35:23.459Z,60.71
2018-09-03T03:36:23.435Z,60.74
2018-09-03T03:37:23.417Z,60.71
2018-09-03T03:38:23.406Z,60.91
2018-09-03T03:39:23.393Z,61.11
2018-09-03T03:40:23.399Z,61.14
2018-09-03T03:41:23.377Z,60.91
2018-09-03T03:42:23.374Z,60.44
2018-09-03T03:43:23.349Z,60.61
2018-09-03T03:44:23.346Z,60.91
2018-09-03T03:45:23.355Z,60.74
2018-09-03T03:46:23.314Z,60.74
2018-09-03T03:47:23.307Z,60.84
2018-09-03T03:48:23.294Z,60.91
2018-09-03T03:49:23.283Z,60.71
2018-09-03T03:50:23.295Z,60.61
2018-09-03T03:51:23.259Z,61.21
2018-09-03T03:52:23.252Z,60.81
2018-09-03T03:53:23.248Z,60.84
2018-09-03T03:54:23.226Z,60.94
2018-09-03T03:55:23.230Z,61.31
2018-09-03T03:56:23.209Z,60.21
2018-09-03T03:57:23.199Z,60.71
2018-09-03T03:58:23.188Z,60.71
2018-09-03T03:59:23.196Z,60.84
2018-09-03T04:00:23.178Z,60.51
2018-09-03T04:01:23.150Z,60.61
2018-09-03T04:02:23.138Z,60.31
2018-09-03T04:03:23.127Z,60.64
2018-09-03T04:04:23.122Z,60.61
2018-09-03T04:05:23.121Z,60.51
2018-09-03T04:06:23.097Z,61.14
2018-09-03T04:07:23.084Z,60.91
2018-09-03T04:08:23.095Z,60.71
2018-09-03T04:09:23.066Z,61.11
2018-09-03T04:10:23.070Z,60.74
2018-09-03T04:11:23.038Z,60.31
2018-09-03T04:12:23.030Z,60.41
2018-09-03T04:13:23.016Z,60.64
2018-09-03T04:14:23.007Z,60.51
2018-09-03T04:15:23.040Z,60.61
2018-09-03T04:16:22.987Z,60.41
2018-09-03T04:17:22.975Z,60.64
2018-09-03T04:18:22.964Z,60.11
2018-09-03T04:19:22.956Z,60.81
2018-09-03T04:20:22.963Z,60.61
2018-09-03T04:21:22.930Z,60.64
2018-09-03T04:22:22.918Z,61.31
2018-09-03T04:23:23.155Z,60.53
2018-09-03T04:24:22.900Z,61.34
2018-09-03T04:25:22.899Z,61.34
2018-09-03T04:26:22.884Z,61.65
2018-09-03T04:27:22.863Z,61.61
2018-09-03T04:28:22.853Z,61.61
2018-09-03T04:29:22.841Z,61.71
2018-09-03T04:30:22.847Z,61.65
2018-09-03T04:31:22.823Z,62.72
2018-09-03T04:32:22.852Z,63.12
2018-09-03T04:33:22.796Z,63.12
2018-09-03T04:34:22.786Z,63.22
2018-09-03T04:35:22.790Z,62.95
2018-09-03T04:36:22.761Z,63.42
2018-09-03T04:37:22.766Z,63.22
2018-09-03T04:38:22.739Z,62.62
2018-09-03T04:39:22.729Z,63.02
2018-09-03T04:40:22.736Z,63.02
2018-09-03T04:41:22.711Z,62.62
2018-09-03T04:42:22.699Z,62.82
2018-09-03T04:43:22.717Z,62.72
2018-09-03T04:44:23.517Z,62.12
2018-09-03T04:45:22.687Z,61.51
2018-09-03T04:46:22.675Z,61.61
2018-09-03T04:47:22.660Z,61.61
2018-09-03T04:48:22.650Z,61.71
2018-09-03T04:49:22.650Z,61.51
2018-09-03T04:50:22.710Z,61.51
2018-09-03T04:51:22.600Z,62.12
2018-09-03T04:52:22.589Z,62.02
2018-09-03T04:53:22.578Z,62.62
2018-09-03T04:54:22.573Z,62.72
2018-09-03T04:55:22.786Z,62.72
2018-09-03T04:56:22.548Z,63.12
2018-09-03T04:57:22.536Z,62.72
2018-09-03T04:58:22.533Z,62.62
2018-09-03T04:59:22.558Z,62.95
2018-09-03T05:00:22.536Z,62.92
2018-09-03T05:01:22.534Z,62.92
2018-09-03T05:02:22.483Z,62.82
2018-09-03T05:03:22.770Z,62.62
2018-09-03T05:04:22.462Z,62.82
2018-09-03T05:05:22.473Z,62.72
2018-09-03T05:06:23.429Z,62.72
2018-09-03T05:07:22.816Z,62.82
2018-09-03T05:08:22.417Z,62.62
2018-09-03T05:09:23.059Z,63.02
2018-09-03T05:10:22.398Z,62.72
2018-09-03T05:11:23.261Z,62.82
2018-09-03T05:12:22.374Z,62.72
2018-09-03T05:13:23.179Z,62.32
2018-09-03T05:14:22.352Z,62.39
2018-09-03T05:15:22.847Z,62.12
2018-09-03T05:16:22.343Z,61.61
2018-09-03T05:17:22.891Z,61.79
2018-09-03T05:18:22.308Z,61.69
2018-09-03T05:19:22.299Z,61.99
2018-09-03T05:20:22.287Z,61.79
2018-09-03T05:21:22.299Z,61.88
2018-09-03T05:22:22.268Z,61.69
2018-09-03T05:23:22.255Z,61.49
2018-09-03T05:24:22.245Z,61.58
2018-09-03T05:25:22.232Z,61.69
2018-09-03T05:26:22.238Z,61.58
2018-09-03T05:27:22.214Z,61.58
2018-09-03T05:28:22.208Z,61.88
2018-09-03T05:29:22.188Z,61.58
2018-09-03T05:30:22.178Z,61.88
2018-09-03T05:31:22.211Z,61.88
2018-09-03T05:32:22.157Z,61.79
2018-09-03T05:33:22.153Z,61.99
2018-09-03T05:34:22.134Z,61.79
2018-09-03T05:35:22.125Z,61.69
2018-09-03T05:36:22.129Z,61.69
2018-09-03T05:37:22.102Z,61.88
2018-09-03T05:38:22.092Z,61.88
2018-09-03T05:39:22.083Z,61.69
2018-09-03T05:40:22.070Z,61.79
2018-09-03T05:41:22.080Z,61.49
2018-09-03T05:42:22.050Z,61.69
2018-09-03T05:43:22.177Z,61.79
2018-09-03T05:44:22.032Z,61.69
2018-09-03T05:45:22.015Z,61.79
2018-09-03T05:46:22.023Z,61.58
2018-09-03T05:47:21.995Z,61.58
2018-09-03T05:48:21.985Z,61.49
2018-09-03T05:49:21.972Z,61.58
2018-09-03T05:50:22.221Z,61.88
2018-09-03T05:51:21.985Z,61.58
2018-09-03T05:52:21.940Z,61.69
2018-09-03T05:53:21.930Z,61.69
2018-09-03T05:54:21.919Z,61.69
2018-09-03T05:55:21.908Z,61.69
2018-09-03T05:56:21.917Z,61.69
2018-09-03T05:57:21.888Z,61.69
2018-09-03T05:58:21.874Z,61.58
2018-09-03T05:59:21.865Z,61.79
2018-09-03T06:00:21.853Z,61.58
2018-09-03T06:01:21.857Z,61.69
2018-09-03T06:02:21.834Z,61.88
2018-09-03T06:03:21.818Z,61.88
2018-09-03T06:04:21.807Z,61.58
2018-09-03T06:05:21.798Z,61.79
2018-09-03T06:06:21.802Z,61.58
2018-09-03T06:07:21.782Z,61.79
2018-09-03T06:08:21.767Z,61.79
2018-09-03T06:09:21.754Z,61.69
2018-09-03T06:10:21.792Z,61.69
2018-09-03T06:11:21.747Z,61.69
2018-09-03T06:12:21.726Z,61.69
2018-09-03T06:13:21.711Z,61.69
2018-09-03T06:14:21.698Z,61.69
2018-09-03T06:15:21.689Z,61.91
2018-09-03T06:16:21.700Z,61.82
2018-09-03T06:17:21.669Z,61.79
2018-09-03T06:18:21.684Z,61.82
2018-09-03T06:19:21.645Z,61.82
2018-09-03T06:20:21.635Z,61.61
2018-09-03T06:21:21.623Z,61.61
2018-09-03T06:22:21.631Z,61.71
2018-09-03T06:23:21.602Z,61.61
2018-09-03T06:24:21.597Z,61.71
2018-09-03T06:25:21.581Z,61.71
2018-09-03T06:26:21.569Z,61.69
2018-09-03T06:27:21.579Z,61.69
2018-09-03T06:28:21.548Z,61.58
2018-09-03T06:29:21.537Z,61.69
2018-09-03T06:30:21.530Z,61.58
2018-09-03T06:31:21.598Z,61.69
2018-09-03T06:32:21.522Z,61.99
2018-09-03T06:33:21.495Z,61.82
2018-09-03T06:34:21.484Z,61.29
2018-09-03T06:35:21.488Z,61.79
2018-09-03T06:36:21.466Z,61.49
2018-09-03T06:37:21.475Z,61.49
2018-09-03T06:38:21.446Z,61.88
2018-09-03T06:39:21.442Z,61.71
2018-09-03T06:40:21.422Z,61.91
2018-09-03T06:41:21.414Z,61.71
2018-09-03T06:42:21.438Z,61.51
2018-09-03T06:43:21.392Z,61.71
2018-09-03T06:44:21.381Z,61.61
2018-09-03T06:45:21.376Z,61.71
2018-09-03T06:46:21.369Z,61.51
2018-09-03T06:47:21.367Z,61.71
2018-09-03T06:48:21.334Z,61.91
2018-09-03T06:49:21.325Z,61.71
2018-09-03T06:50:21.315Z,61.71
2018-09-03T06:51:21.304Z,62.55
2018-09-03T06:52:21.306Z,62.85
2018-09-03T06:53:21.291Z,62.15
2018-09-03T06:54:21.283Z,62.45
2018-09-03T06:55:21.704Z,62.82
2018-09-03T06:56:21.248Z,62.85
2018-09-03T06:57:21.264Z,62.85
2018-09-03T06:58:21.234Z,62.42
2018-09-03T06:59:21.215Z,62.12
2018-09-03T07:00:21.211Z,61.71
2018-09-03T07:01:21.190Z,62.02
2018-09-03T07:02:21.203Z,61.71
2018-09-03T07:03:21.181Z,61.82
2018-09-03T07:04:21.194Z,61.82
2018-09-03T07:05:21.159Z,61.21
2018-09-03T07:06:21.146Z,61.41
2018-09-03T07:07:21.142Z,61.29
2018-09-03T07:08:21.737Z,61.49
2018-09-03T07:09:21.902Z,61.18
2018-09-03T07:10:21.096Z,61.29
2018-09-03T07:11:21.092Z,60.88
2018-09-03T07:12:21.089Z,60.68
2018-09-03T07:13:21.988Z,61.18
2018-09-03T07:14:21.057Z,60.58
2018-09-03T07:15:21.064Z,60.88
2018-09-03T07:16:21.029Z,60.78
2018-09-03T07:17:21.034Z,60.58
2018-09-03T07:18:21.007Z,60.35
2018-09-03T07:19:21.000Z,60.68
2018-09-03T07:20:20.997Z,60.58
2018-09-03T07:21:20.976Z,60.65
2018-09-03T07:22:20.988Z,60.65
2018-09-03T07:23:20.956Z,60.48
2018-09-03T07:24:20.948Z,60.75
2018-09-03T07:25:20.936Z,60.58
2018-09-03T07:26:20.918Z,60.48
2018-09-03T07:27:20.947Z,60.55
2018-09-03T07:28:21.620Z,60.68
2018-09-03T07:29:20.887Z,60.75
2018-09-03T07:30:20.873Z,60.78
2018-09-03T07:31:20.889Z,60.45
2018-09-03T07:32:20.871Z,60.88
2018-09-03T07:33:20.841Z,60.78
2018-09-03T07:34:20.832Z,60.68
2018-09-03T07:35:20.828Z,60.58
2018-09-03T07:36:20.814Z,60.78
2018-09-03T07:37:20.812Z,60.58
2018-09-03T07:38:20.805Z,60.55
2018-09-03T07:39:20.775Z,60.65
2018-09-03T07:40:20.767Z,60.38
2018-09-03T07:41:20.753Z,60.78
2018-09-03T07:42:20.795Z,60.65
2018-09-03T07:43:20.730Z,60.45
2018-09-03T07:44:20.732Z,60.75
2018-09-03T07:45:20.711Z,60.65
2018-09-03T07:46:20.699Z,60.65
2018-09-03T07:47:20.689Z,60.96
2018-09-03T07:48:20.714Z,60.75
2018-09-03T07:49:20.693Z,60.45
2018-09-03T07:50:20.678Z,60.65
2018-09-03T07:51:20.650Z,60.65
2018-09-03T07:52:20.643Z,60.55
2018-09-03T07:53:20.639Z,60.55
2018-09-03T07:54:20.614Z,60.75
2018-09-03T07:55:20.604Z,60.35
2018-09-03T07:56:20.591Z,60.55
2018-09-03T07:57:20.580Z,60.45
2018-09-03T07:58:20.593Z,60.55
2018-09-03T07:59:20.572Z,60.55
2018-09-03T08:00:20.547Z,61.05
2018-09-03T08:01:21.889Z,60.55
2018-09-03T08:02:20.524Z,61.05
2018-09-03T08:03:20.531Z,61.05
2018-09-03T08:04:20.513Z,61.05
2018-09-03T08:05:20.512Z,60.85
2018-09-03T08:06:20.492Z,60.65
2018-09-03T08:07:20.579Z,61.05
2018-09-03T08:08:20.477Z,60.55
2018-09-03T08:09:20.450Z,61.05
2018-09-03T08:10:20.439Z,60.65
2018-09-03T08:11:20.427Z,60.85
2018-09-03T08:12:20.417Z,60.65
2018-09-03T08:13:20.430Z,60.75
2018-09-03T08:14:20.402Z,60.65
2018-09-03T08:15:20.382Z,60.02
2018-09-03T08:16:20.384Z,60.15
2018-09-03T08:17:20.365Z,60.22
2018-09-03T08:18:20.396Z,59.95
2018-09-03T08:19:20.337Z,60.15
2018-09-03T08:20:20.326Z,60.02
2018-09-03T08:21:20.318Z,60.02
2018-09-03T08:22:20.305Z,60.12
2018-09-03T08:23:20.309Z,59.92
2018-09-03T08:24:20.295Z,59.92
2018-09-03T08:25:20.281Z,59.82
2018-09-03T08:26:20.311Z,59.62
2018-09-03T08:27:20.267Z,59.62
2018-09-03T08:28:20.257Z,59.72
2018-09-03T08:29:20.229Z,59.62
2018-09-03T08:30:20.243Z,59.12
2018-09-03T08:31:20.202Z,59.32
2018-09-03T08:32:20.191Z,58.72
2018-09-03T08:33:20.211Z,59.32
2018-09-03T08:34:20.168Z,59.32
2018-09-03T08:35:20.212Z,59.42
2018-09-03T08:36:20.145Z,59.92
2018-09-03T08:37:20.136Z,59.34
2018-09-03T08:38:20.192Z,59.45
2018-09-03T08:39:20.117Z,59.55
2018-09-03T08:40:20.121Z,59.75
2018-09-03T08:41:20.088Z,60.25
2018-09-03T08:42:20.076Z,60.08
2018-09-03T08:43:20.082Z,60.28
2018-09-03T08:44:20.053Z,60.28
2018-09-03T08:45:20.040Z,60.28
2018-09-03T08:46:20.034Z,60.05
2018-09-03T08:47:20.029Z,59.95
2018-09-03T08:48:20.026Z,60.08
2018-09-03T08:49:19.994Z,60.28
2018-09-03T08:50:19.995Z,60.25
2018-09-03T08:51:19.973Z,59.88
2018-09-03T08:52:19.960Z,60.05
2018-09-03T08:53:19.972Z,59.95
2018-09-03T08:54:19.945Z,60.35
2018-09-03T08:55:19.937Z,60.05
2018-09-03T08:56:19.920Z,60.15
2018-09-03T08:57:19.908Z,60.15
2018-09-03T08:58:19.912Z,59.85
2018-09-03T08:59:19.879Z,60.15
2018-09-03T09:00:19.869Z,59.55
2018-09-03T09:01:19.858Z,58.81
2018-09-03T09:02:19.845Z,58.51
2018-09-03T09:03:19.853Z,58.31
2018-09-03T09:04:19.835Z,59.14
2018-09-03T09:05:19.823Z,59.55
2018-09-03T09:06:19.801Z,59.14
2018-09-03T09:07:19.789Z,59.45
2018-09-03T09:08:19.794Z,59.95
2018-09-03T09:09:19.768Z,60.15
2018-09-03T09:10:19.769Z,60.25
2018-09-03T09:11:19.743Z,60.22
2018-09-03T09:12:19.733Z,60.15
2018-09-03T09:13:19.719Z,59.62
2018-09-03T09:14:19.725Z,59.52
2018-09-03T09:15:19.700Z,59.42
2018-09-03T09:16:19.694Z,58.72
2018-09-03T09:17:19.682Z,58.89
2018-09-03T09:18:19.661Z,59.09
2018-09-03T09:19:19.672Z,59.01
2018-09-03T09:20:19.640Z,58.89
2018-09-03T09:21:19.640Z,58.92
2018-09-03T09:22:19.615Z,59.12
2018-09-03T09:23:19.612Z,58.09
2018-09-03T09:24:19.656Z,58.39
2018-09-03T09:25:19.588Z,57.48
2018-09-03T09:26:19.571Z,57.71
2018-09-03T09:27:19.616Z,58.01
2018-09-03T09:28:19.552Z,58.42
2018-09-03T09:29:19.554Z,59.01
2018-09-03T09:30:19.527Z,58.72
2018-09-03T09:31:19.513Z,58.11
2018-09-03T09:32:19.550Z,57.94
2018-09-03T09:33:19.498Z,58.64
2018-09-03T09:34:19.492Z,58.04
2018-09-03T09:35:19.469Z,58.14
2018-09-03T09:36:19.460Z,58.04
2018-09-03T09:37:21.459Z,58.44
2018-09-03T09:38:19.439Z,59.05
2018-09-03T09:39:19.440Z,59.14
2018-09-03T09:40:19.410Z,58.24
2018-09-03T09:41:19.467Z,59.45
2018-09-03T09:42:19.407Z,59.75
2018-09-03T09:43:19.382Z,59.05
2018-09-03T09:44:19.404Z,59.65
2018-09-03T09:45:19.353Z,59.12
2018-09-03T09:46:19.344Z,58.01
2018-09-03T09:47:19.338Z,57.71
2018-09-03T09:48:19.325Z,58.81
2018-09-03T09:49:19.325Z,58.42
2018-09-03T09:50:19.295Z,58.51
2018-09-03T09:51:19.292Z,58.51
2018-09-03T09:52:19.273Z,58.62
2018-09-03T09:53:19.265Z,57.68
2018-09-03T09:54:19.266Z,57.39
2018-09-03T09:55:19.242Z,57.68
2018-09-03T09:56:19.232Z,57.59
2018-09-03T09:57:19.214Z,57.98
2018-09-03T09:58:19.206Z,57.98
2018-09-03T09:59:19.209Z,58.69
2018-09-03T10:00:19.215Z,57.68
2018-09-03T10:01:19.170Z,57.39
2018-09-03T10:02:19.174Z,55.98
2018-09-03T10:03:19.151Z,56.28
2018-09-03T10:04:19.209Z,57.59
2018-09-03T10:05:19.124Z,56.51
2018-09-03T10:06:19.112Z,56.58
2018-09-03T10:07:19.102Z,57.28
2018-09-03T10:08:19.099Z,57.18
2018-09-03T10:09:19.102Z,57.68
2018-09-03T10:10:19.075Z,56.08
2018-09-03T10:11:19.057Z,56.68
2018-09-03T10:12:19.046Z,57.28
2018-09-03T10:13:19.035Z,57.18
2018-09-03T10:14:19.039Z,57.68
2018-09-03T10:15:19.039Z,57.59
2018-09-03T10:16:19.001Z,57.18
2018-09-03T10:17:18.991Z,56.08
2018-09-03T10:18:18.984Z,56.85
2018-09-03T10:19:18.988Z,57.06
2018-09-03T10:20:18.960Z,56.96
2018-09-03T10:21:18.956Z,57.15
2018-09-03T10:22:18.938Z,56.45
2018-09-03T10:23:18.937Z,56.26
2018-09-03T10:24:19.039Z,55.95
2018-09-03T10:25:18.906Z,56.35
2018-09-03T10:26:18.956Z,55.32
2018-09-03T10:27:18.894Z,56.13
2018-09-03T10:28:18.867Z,55.73
2018-09-03T10:29:18.925Z,55.93
2018-09-03T10:30:18.860Z,56.13
2018-09-03T10:31:18.836Z,54.22
2018-09-03T10:32:18.828Z,55.52
2018-09-03T10:33:18.830Z,55.52
2018-09-03T10:34:18.838Z,55.82
2018-09-03T10:35:18.791Z,55.82
2018-09-03T10:36:18.799Z,56.43
2018-09-03T10:37:18.775Z,56.43
2018-09-03T10:38:18.768Z,56.33
2018-09-03T10:39:18.748Z,56.02
2018-09-03T10:40:18.767Z,56.02
2018-09-03T10:41:18.740Z,56.23
2018-09-03T10:42:18.716Z,55.82
2018-09-03T10:43:18.704Z,55.32
2018-09-03T10:44:18.719Z,55.82
2018-09-03T10:45:20.400Z,55.93
2018-09-03T10:46:18.671Z,55.93
2018-09-03T10:47:18.777Z,56.23
2018-09-03T10:48:18.649Z,56.52
2018-09-03T10:49:18.640Z,56.52
2018-09-03T10:50:18.641Z,56.73
2018-09-03T10:51:18.617Z,56.52
2018-09-03T10:52:18.605Z,55.73
2018-09-03T10:53:18.604Z,56.23
2018-09-03T10:54:18.583Z,55.93
2018-09-03T10:55:18.606Z,56.13
2018-09-03T10:56:18.560Z,56.13
2018-09-03T10:57:18.562Z,56.43
2018-09-03T10:58:18.541Z,56.33
2018-09-03T10:59:18.533Z,56.63
2018-09-03T11:00:18.532Z,56.63
2018-09-03T11:01:18.505Z,56.23
2018-09-03T11:02:18.498Z,56.52
2018-09-03T11:03:18.511Z,56.83
2018-09-03T11:04:18.475Z,56.83
2018-09-03T11:05:18.500Z,56.43
2018-09-03T11:06:18.464Z,56.73
2018-09-03T11:07:18.440Z,57.03
2018-09-03T11:08:18.490Z,57.13
2018-09-03T11:09:18.417Z,57.03
2018-09-03T11:10:18.427Z,56.73
2018-09-03T11:11:18.402Z,56.73
2018-09-03T11:12:18.388Z,57.13
2018-09-03T11:13:18.374Z,57.03
2018-09-03T11:14:18.536Z,56.73
2018-09-03T11:15:18.367Z,56.93
2018-09-03T11:16:18.366Z,57.03
2018-09-03T11:17:18.335Z,57.33
2018-09-03T11:18:18.329Z,57.33
2018-09-03T11:19:18.312Z,57.76
2018-09-03T11:20:18.312Z,57.66
2018-09-03T11:21:18.415Z,57.66
2018-09-03T11:22:18.313Z,57.46
2018-09-03T11:23:18.262Z,57.26
2018-09-03T11:24:18.250Z,57.46
2018-09-03T11:25:18.260Z,57.76
2018-09-03T11:26:18.247Z,57.35
2018-09-03T11:27:18.220Z,57.56
2018-09-03T11:28:18.222Z,57.66
2018-09-03T11:29:18.198Z,57.83
2018-09-03T11:30:18.212Z,57.86
2018-09-03T11:31:18.178Z,57.76
2018-09-03T11:32:18.176Z,57.66
2018-09-03T11:33:18.155Z,57.46
2018-09-03T11:34:18.142Z,57.56
2018-09-03T11:35:18.199Z,58.56
2018-09-03T11:36:18.119Z,58.56
2018-09-03T11:37:18.112Z,57.96
2018-09-03T11:38:18.140Z,58.99
2018-09-03T11:39:18.104Z,59.06
2018-09-03T11:40:18.099Z,58.99
2018-09-03T11:41:18.067Z,59.09
2018-09-03T11:42:18.068Z,59.09
2018-09-03T11:43:18.052Z,58.86
2018-09-03T11:44:18.037Z,58.76
2018-09-03T11:45:18.045Z,59.09
2018-09-03T11:46:18.022Z,59.26
2018-09-03T11:47:17.998Z,59.06
2018-09-03T11:48:18.009Z,58.46
2018-09-03T11:49:17.975Z,59.06
2018-09-03T11:50:17.968Z,58.96
2018-09-03T11:51:17.973Z,58.66
2018-09-03T11:52:17.941Z,58.86
2018-09-03T11:53:17.931Z,58.96
2018-09-03T11:54:17.927Z,58.76
2018-09-03T11:55:17.917Z,58.56
2018-09-03T11:56:17.923Z,58.43
2018-09-03T11:57:17.887Z,58.56
2018-09-03T11:58:17.877Z,58.03
2018-09-03T11:59:17.864Z,57.13
2018-09-03T12:00:17.878Z,57.63
2018-09-03T12:01:18.507Z,57.63
2018-09-03T12:02:17.832Z,57.03
2018-09-03T12:03:17.820Z,57.43
2018-09-03T12:04:17.810Z,57.53
2018-09-03T12:05:17.801Z,57.53
2018-09-03T12:06:18.224Z,56.93
2018-09-03T12:07:18.422Z,58.13
2018-09-03T12:08:17.767Z,58.63
2018-09-03T12:09:17.754Z,58.43
2018-09-03T12:10:17.742Z,58.13
2018-09-03T12:11:17.756Z,57.73
2018-09-03T12:12:17.728Z,57.83
2018-09-03T12:13:17.709Z,57.30
2018-09-03T12:14:17.706Z,57.23
2018-09-03T12:15:19.661Z,57.70
2018-09-03T12:16:17.693Z,57.10
2018-09-03T12:17:17.668Z,57.30
2018-09-03T12:18:17.659Z,57.20
2018-09-03T12:19:17.643Z,57.30
2018-09-03T12:20:17.631Z,56.90
2018-09-03T12:21:18.480Z,56.60
2018-09-03T12:22:17.611Z,56.70
2018-09-03T12:23:17.625Z,56.48
2018-09-03T12:24:17.589Z,56.60
2018-09-03T12:25:17.581Z,55.30
2018-09-03T12:26:17.583Z,55.17
2018-09-03T12:27:17.555Z,54.47
2018-09-03T12:28:17.546Z,54.97
2018-09-03T12:29:17.540Z,53.77
2018-09-03T12:30:17.543Z,53.85
2018-09-03T12:31:17.543Z,54.07
2018-09-03T12:32:17.501Z,54.14
2018-09-03T12:33:17.502Z,53.94
2018-09-03T12:34:17.487Z,54.35
2018-09-03T12:35:17.475Z,53.85
2018-09-03T12:36:17.474Z,52.44
2018-09-03T12:37:17.450Z,52.55
2018-09-03T12:38:17.438Z,52.34
2018-09-03T12:39:18.761Z,52.07
2018-09-03T12:40:17.422Z,52.97
2018-09-03T12:41:17.433Z,53.47
2018-09-03T12:42:17.391Z,53.97
2018-09-03T12:43:17.381Z,53.87
2018-09-03T12:44:17.375Z,54.27
2018-09-03T12:45:17.357Z,54.17
2018-09-03T12:46:17.439Z,54.17
2018-09-03T12:47:17.340Z,54.07
2018-09-03T12:48:17.330Z,54.24
2018-09-03T12:49:17.318Z,53.85
2018-09-03T12:50:17.319Z,53.74
2018-09-03T12:51:17.381Z,53.74
2018-09-03T12:52:17.284Z,53.55